Sarnia, Ontario

3:53 PM EDT on April 27, 2017 (GMT -0400)
Sarnia (Hadfield)

Weather History for CYZR - March, 2013

Change the Weather History Date:

Tuesday, March 12, 2013

  Actual Average Record
Temperature  
Mean Temperature 42 °F -  
Max Temperature 51 °F 43 °F 74 °F (1990)
Min Temperature 32 °F 30 °F -5 °F (2017)
Degree Days  
Heating Degree Days 24    
Moisture  
Dew Point 29 °F    
Average Humidity 74    
Maximum Humidity 87    
Minimum Humidity 61    
Precipitation  
Precipitation 0.00 in 0.09 in - ()
Sea Level Pressure  
Sea Level Pressure 29.84 in    
Wind  
Wind Speed 11 mph ()    
Max Wind Speed 18 mph    
Max Gust Speed 29 mph    
Visibility 9.0 miles    
Events Rain , Snow    
Averages and records for this station are not official NWS values.
T = Trace of Precipitation, MM = Missing Value Source: Averaged Metar Reports

Daily Weather History Graph

Daily Weather History Graph

Search for Another Location

Airport or City:

Trip Planner

Search our weather history database for the weather conditions in past years. The results will help you decide how hot, cold, wet, or windy it might be!

Date:

Astronomy

Mar. 12, 2013 Rise Set
Actual Time 7:46 AM EDT 7:32 PM EDT
Civil Twilight 7:17 AM EDT 8:00 PM EDT
Nautical Twilight 6:45 AM EDT 8:33 PM EDT
Astronomical Twilight 6:11 AM EDT 9:07 PM EDT
Moon 7:49 AM EDT (3/12) 8:49 PM EDT (3/12)
Length of Visible Light 12h 42m
Length of Day
11h 46m
New Moon, 1% of the Moon is Illuminated
Mar 12
New Moon
Mar 19
First Quarter
Mar 27
Full
Apr 3
Last Quarter
Apr 10
New

Hourly Weather History & Observations

Time (EDT) Temp. Windchill Dew Point Humidity Pressure Visibility Wind Dir Wind Speed Gust Speed Precip Events Conditions
12:00 AM 41.0 °F 32.8 °F 33.8 °F 76% 29.66 in 9.0 mi WSW 16.1 mph 28.8 mph N/A   Overcast
12:48 AM 39.2 °F 30.8 °F 33.8 °F 81% 29.67 in 9.0 mi SW 15.0 mph 25.3 mph N/A   Overcast
1:00 AM 39.2 °F 32.5 °F 33.8 °F 81% 29.68 in 9.0 mi SW 10.4 mph 24.2 mph N/A   Overcast
1:14 AM 39.2 °F 30.5 °F 32.0 °F 75% 29.68 in 9.0 mi SW 16.1 mph - N/A   Overcast
1:59 AM 39.2 °F 32.5 °F 33.8 °F 81% 29.69 in 9.0 mi SSW 10.4 mph 18.4 mph N/A   Overcast
2:00 AM 36 °F - 32 °F 80% 30.13 in - SSW 4.6 mph - -  
2:00 AM 37.4 °F 30.3 °F 32.0 °F 81% 29.69 in 9.0 mi SSW 10.4 mph 18.4 mph N/A   Overcast
3:00 AM 37.4 °F 29.8 °F 33.8 °F 87% 29.71 in 9.0 mi SSW 11.5 mph 19.6 mph N/A   Overcast
4:00 AM 37.4 °F 29.8 °F 33.8 °F 87% 29.72 in 9.0 mi SW 11.5 mph 17.3 mph N/A   Overcast
5:37 AM 37.4 °F 29.8 °F 30.2 °F 75% 29.74 in 9.0 mi WSW 11.5 mph 18.4 mph N/A   Overcast
6:00 AM 37.4 °F 29.8 °F 30.2 °F 75% 29.75 in 9.0 mi West 11.5 mph 18.4 mph N/A   Overcast
6:06 AM 37.4 °F 28.5 °F 30.2 °F 75% 29.75 in 9.0 mi WSW 15.0 mph - N/A   Overcast
6:13 AM 37.4 °F 30.3 °F 30.2 °F 75% 29.75 in 9.0 mi WSW 10.4 mph 18.4 mph N/A   Overcast
6:18 AM 37.4 °F 28.9 °F 30.2 °F 75% 29.75 in 9.0 mi West 13.8 mph 23.0 mph N/A   Overcast
6:19 AM 37.4 °F 28.5 °F 30.2 °F 75% 29.76 in 9.0 mi WSW 15.0 mph 23.0 mph N/A   Overcast
6:20 AM 37.4 °F 29.8 °F 30.2 °F 75% 29.76 in 9.0 mi WSW 11.5 mph 23.0 mph N/A   Overcast
6:23 AM 37.4 °F 29.3 °F 30.2 °F 75% 29.76 in 9.0 mi WSW 12.7 mph 23.0 mph N/A   Overcast
6:24 AM 37.4 °F 30.3 °F 30.2 °F 75% 29.76 in 9.0 mi West 10.4 mph 23.0 mph N/A   Overcast
6:26 AM 37.4 °F 30.8 °F 30.2 °F 75% 29.76 in 9.0 mi WSW 9.2 mph 23.0 mph N/A   Overcast
7:00 AM 37.4 °F 31.4 °F 32.0 °F 81% 29.76 in 9.0 mi WSW 8.1 mph - N/A   Overcast
7:56 AM 35.6 °F 27.5 °F 30.2 °F 81% 29.78 in 9.0 mi WSW 11.5 mph 17.3 mph N/A   Overcast
7:57 AM 35.6 °F 27.5 °F 30.2 °F 81% 29.78 in 9.0 mi WSW 11.5 mph - N/A   Overcast
8:00 AM 37 °F - 33 °F 81% 30.13 in - SSW 6.9 mph - -  
8:00 AM 37.4 °F 29.8 °F 30.2 °F 75% 29.77 in 9.0 mi WSW 11.5 mph 20.7 mph N/A   Overcast
8:04 AM 37.4 °F 29.8 °F 30.2 °F 75% 29.78 in 9.0 mi WSW 11.5 mph 20.7 mph N/A   Overcast
8:08 AM 37.4 °F 29.3 °F 30.2 °F 75% 29.78 in 9.0 mi WSW 12.7 mph 20.7 mph N/A   Overcast
8:19 AM 35.6 °F 27.1 °F 30.2 °F 81% 29.78 in 9.0 mi SW 12.7 mph 21.9 mph N/A   Overcast
8:37 AM 35.6 °F 28.6 °F 30.2 °F 81% 29.79 in 9.0 mi SW 9.2 mph 19.6 mph N/A   Overcast
8:44 AM 35.6 °F 27.5 °F 30.2 °F 81% 29.79 in 9.0 mi SW 11.5 mph - N/A   Overcast
8:47 AM 35.6 °F 28.0 °F 30.2 °F 81% 29.79 in 9.0 mi SW 10.4 mph 17.3 mph N/A   Overcast
8:48 AM 35.6 °F 28.0 °F 30.2 °F 81% 29.79 in 9.0 mi SW 10.4 mph 17.3 mph N/A   Overcast
9:00 AM 35.6 °F 27.5 °F 30.2 °F 81% 29.79 in 9.0 mi SW 11.5 mph - N/A   Overcast
9:42 AM 35.6 °F 28.6 °F 30.2 °F 81% 29.80 in 9.0 mi SSW 9.2 mph - N/A   Overcast
9:50 AM 35.6 °F 28.0 °F 30.2 °F 81% 29.80 in 9.0 mi SW 10.4 mph - N/A   Overcast
9:56 AM 35.6 °F 28.0 °F 30.2 °F 81% 29.80 in 9.0 mi WSW 10.4 mph - N/A   Overcast
9:59 AM 35.6 °F 27.5 °F 30.2 °F 81% 29.80 in 9.0 mi WSW 11.5 mph - N/A   Overcast
10:00 AM 35.6 °F 27.1 °F 30.2 °F 81% 29.81 in 9.0 mi SW 12.7 mph - N/A   Overcast
10:28 AM 35.6 °F 26.6 °F 30.2 °F 81% 29.81 in 9.0 mi West 13.8 mph 19.6 mph N/A   Overcast
10:34 AM 35.6 °F 27.1 °F 30.2 °F 81% 29.82 in 9.0 mi West 12.7 mph 19.6 mph N/A   Overcast
10:36 AM 35.6 °F 27.5 °F 30.2 °F 81% 29.82 in 9.0 mi West 11.5 mph 19.6 mph N/A   Overcast
10:58 AM 35.6 °F 27.1 °F 28.4 °F 75% 29.82 in 9.0 mi WSW 12.7 mph 19.6 mph N/A Rain Light Rain
11:00 AM 35.6 °F 27.1 °F 28.4 °F 75% 29.82 in 9.0 mi WSW 12.7 mph 19.6 mph N/A Rain Light Rain
11:18 AM 37.4 °F 30.8 °F 28.4 °F 70% 29.82 in 9.0 mi West 9.2 mph 18.4 mph N/A   Overcast
11:22 AM 35.6 °F 27.1 °F 28.4 °F 75% 29.82 in 9.0 mi West 12.7 mph - N/A Rain Light Rain
11:32 AM 35.6 °F 27.1 °F 28.4 °F 75% 29.82 in 9.0 mi WSW 12.7 mph 20.7 mph N/A Rain Light Rain
11:33 AM 35.6 °F 27.1 °F 28.4 °F 75% 29.82 in 9.0 mi West 12.7 mph 20.7 mph N/A Rain Light Rain
11:53 AM 35.6 °F 27.5 °F 28.4 °F 75% 29.82 in 9.0 mi West 11.5 mph 19.6 mph N/A   Overcast
11:55 AM 35.6 °F 27.5 °F 28.4 °F 75% 29.83 in 9.0 mi West 11.5 mph 19.6 mph N/A Rain Light Rain
12:00 PM 35.6 °F 27.1 °F 28.4 °F 75% 29.83 in 9.0 mi WSW 12.7 mph - N/A Rain Light Rain
12:55 PM 37.4 °F 29.8 °F 28.4 °F 70% 29.83 in 9.0 mi West 11.5 mph 21.9 mph N/A   Overcast
1:00 PM 37.4 °F 29.3 °F 28.4 °F 70% 29.83 in 9.0 mi West 12.7 mph 21.9 mph N/A   Overcast
1:01 PM 37.4 °F 29.3 °F 28.4 °F 70% 29.83 in 9.0 mi West 12.7 mph 21.9 mph N/A   Overcast
2:00 PM 47 °F - 38 °F 61% 30.12 in - SSW 9.2 mph - -  
2:00 PM 39.2 °F 32.5 °F 32.0 °F 75% 29.83 in 9.0 mi SW 10.4 mph 17.3 mph N/A   Overcast
2:08 PM 39.2 °F 32.0 °F 30.2 °F 70% 29.83 in 9.0 mi WSW 11.5 mph - N/A   Overcast
2:27 PM 37.4 °F 29.3 °F 28.4 °F 70% 29.83 in 9.0 mi West 12.7 mph - N/A Rain Light Rain
2:45 PM 37.4 °F 29.3 °F 30.2 °F 75% 29.83 in 9.0 mi West 12.7 mph - N/A Rain Light Rain
2:49 PM 37.4 °F 29.8 °F 30.2 °F 75% 29.83 in 9.0 mi West 11.5 mph 18.4 mph N/A   Overcast
2:57 PM 37.4 °F 28.5 °F 30.2 °F 75% 29.83 in 9.0 mi West 15.0 mph 20.7 mph N/A   Overcast
3:00 PM 37.4 °F 27.5 °F 30.2 °F 75% 29.83 in 9.0 mi West 18.4 mph 25.3 mph N/A   Overcast
3:03 PM 37.4 °F 28.5 °F 28.4 °F 70% 29.83 in 9.0 mi West 15.0 mph 25.3 mph N/A Rain Light Rain
3:05 PM 37.4 °F 28.9 °F 28.4 °F 70% 29.83 in 9.0 mi West 13.8 mph 25.3 mph N/A Rain Light Rain
3:09 PM 37.4 °F 30.3 °F 30.2 °F 75% 29.83 in 9.0 mi West 10.4 mph 24.2 mph N/A   Overcast
3:16 PM 37.4 °F 30.3 °F 28.4 °F 70% 29.83 in 9.0 mi West 10.4 mph 18.4 mph N/A Rain Light Rain
3:18 PM 37.4 °F 30.8 °F 28.4 °F 70% 29.83 in 9.0 mi WSW 9.2 mph - N/A Rain Light Rain
3:26 PM 37.4 °F 28.5 °F 28.4 °F 70% 29.83 in 9.0 mi West 15.0 mph - N/A   Overcast
3:54 PM 37.4 °F 28.9 °F 28.4 °F 70% 29.83 in 9.0 mi WSW 13.8 mph 19.6 mph N/A Rain Light Rain
4:00 PM 37.4 °F 29.8 °F 28.4 °F 70% 29.83 in 9.0 mi WSW 11.5 mph 20.7 mph N/A Rain Light Rain
4:03 PM 37.4 °F 29.8 °F 28.4 °F 70% 29.83 in 9.0 mi WSW 11.5 mph 20.7 mph N/A   Overcast
4:08 PM 37.4 °F 30.8 °F 28.4 °F 70% 29.83 in 9.0 mi WSW 9.2 mph 17.3 mph N/A Rain Light Rain
4:17 PM 37.4 °F 30.8 °F 26.6 °F 65% 29.83 in 9.0 mi WSW 9.2 mph 17.3 mph N/A   Overcast
4:21 PM 37.4 °F 29.3 °F 26.6 °F 65% 29.83 in 9.0 mi West 12.7 mph 20.7 mph N/A Rain Light Rain
5:00 PM 37.4 °F 29.8 °F 28.4 °F 70% 29.85 in 9.0 mi West 11.5 mph - N/A Rain Light Rain
5:05 PM 37.4 °F 30.8 °F 28.4 °F 70% 29.85 in 9.0 mi West 9.2 mph - N/A   Overcast
5:10 PM 37.4 °F 30.3 °F 28.4 °F 70% 29.85 in 9.0 mi WSW 10.4 mph 18.4 mph N/A Rain Light Rain
6:00 PM 37.4 °F 29.3 °F 28.4 °F 70% 29.86 in 9.0 mi WSW 12.7 mph 19.6 mph N/A Rain Light Rain
6:03 PM 37.4 °F 30.3 °F 28.4 °F 70% 29.86 in 9.0 mi WSW 10.4 mph 19.6 mph N/A   Overcast
6:11 PM 37.4 °F 28.9 °F 26.6 °F 65% 29.86 in 9.0 mi WSW 13.8 mph - N/A Rain Light Rain
7:00 PM 35.6 °F 26.6 °F 26.6 °F 70% 29.87 in 9.0 mi West 13.8 mph 20.7 mph N/A Rain Light Rain
8:00 PM 43 °F - 37 °F 72% 30.10 in - South 4.6 mph - -  
8:00 PM 35.6 °F 28.0 °F 26.6 °F 70% 29.89 in 9.0 mi West 10.4 mph - N/A Rain Light Rain
8:40 PM 33.8 °F 24.8 °F 26.6 °F 75% 29.90 in 9.0 mi WSW 12.7 mph 19.6 mph N/A Rain , Snow Light Snow
8:49 PM 33.8 °F 25.3 °F 26.6 °F 75% 29.90 in 9.0 mi West 11.5 mph 18.4 mph N/A Rain Light Rain
9:00 PM 33.8 °F 25.8 °F 26.6 °F 75% 29.91 in 9.0 mi WSW 10.4 mph 18.4 mph N/A Rain Light Rain
9:05 PM 33.8 °F 24.8 °F 26.6 °F 75% 29.91 in 9.0 mi West 12.7 mph 19.6 mph N/A Rain , Snow Light Snow
9:12 PM 33.8 °F 26.4 °F 24.8 °F 70% 29.91 in 9.0 mi WSW 9.2 mph 18.4 mph N/A Snow Light Snow
9:18 PM 33.8 °F 27.0 °F 24.8 °F 70% 29.91 in 9.0 mi West 8.1 mph 17.3 mph N/A Snow Light Snow
9:23 PM 33.8 °F 25.8 °F 24.8 °F 70% 29.91 in 9.0 mi West 10.4 mph 17.3 mph N/A   Overcast
9:28 PM 33.8 °F 24.3 °F 24.8 °F 70% 29.91 in 9.0 mi West 13.8 mph - N/A   Overcast
10:00 PM 33.8 °F 27.7 °F 23.0 °F 65% 29.91 in 9.0 mi West 6.9 mph - N/A   Overcast
10:33 PM 33.8 °F 26.4 °F 23.0 °F 65% 29.91 in 9.0 mi West 9.2 mph 19.6 mph N/A   Overcast
10:42 PM 33.8 °F 24.8 °F 23.0 °F 65% 29.91 in 9.0 mi West 12.7 mph - N/A Rain Light Rain
10:47 PM 33.8 °F 27.0 °F 23.0 °F 65% 29.91 in 9.0 mi West 8.1 mph - N/A Rain Light Rain
10:58 PM 33.8 °F 27.7 °F 23.0 °F 65% 29.91 in 9.0 mi WSW 6.9 mph - N/A Rain Light Rain
11:00 PM 33.8 °F 27.7 °F 23.0 °F 65% 29.91 in 9.0 mi West 6.9 mph - N/A Rain Light Rain
11:08 PM 33.8 °F 27.0 °F 24.8 °F 70% 29.90 in 9.0 mi West 8.1 mph - N/A Rain Light Rain
11:17 PM 32.0 °F 24.8 °F 24.8 °F 75% 29.90 in 9.0 mi SW 8.1 mph - N/A Rain , Snow Light Snow
11:22 PM 32.0 °F 24.2 °F 24.8 °F 75% 29.90 in 9.0 mi SW 9.2 mph - N/A Snow Light Snow
11:24 PM 32.0 °F 24.8 °F 24.8 °F 75% 29.91 in 9.0 mi SW 8.1 mph - N/A Snow Light Snow
11:29 PM 32.0 °F 26.4 °F 24.8 °F 75% 29.91 in 9.0 mi SW 5.8 mph - N/A   Overcast
11:34 PM 32.0 °F 23.6 °F 24.8 °F 75% 29.91 in 9.0 mi SW 10.4 mph - N/A Rain Light Rain
11:37 PM 32.0 °F 24.2 °F 24.8 °F 75% 29.91 in 9.0 mi SW 9.2 mph - N/A Rain Light Rain
11:47 PM 32.0 °F 24.8 °F 26.6 °F 80% 29.91 in 9.0 mi SSW 8.1 mph - N/A Rain Light Rain
11:53 PM 32.0 °F 24.2 °F 26.6 °F 80% 29.91 in 9.0 mi SSW 9.2 mph - N/A   Overcast
11:58 PM 32.0 °F 24.2 °F 26.6 °F 80% 29.91 in 9.0 mi SSW 9.2 mph - N/A Rain Light Rain